Details From VDSR - Siem Reap
To VDPP - Phnom Penh Intl
Flight Number -
Tags Generated
Created
Modified
Stats Distance 127 nm / 236 km
Max Altitude 0 ft / 0 m
Waypoints 2
Social Downloads 2
Likes 0
Share VATSIM

Download

Looking for another format? Having issues loading an existing format? Contact us
Advertisement - Login to hide

Notes

Generated

Route

VDSR VDPP

ID Type Via Altitude Latitude Longitude Leg Dist Tot Dist Heading (true) Name
O VDSR APT - 0 ft / 0 m 13.40295˚ 103.80408˚ - 0 nm - -
O VDPP APT - 0 ft / 0 m 11.53713˚ 104.83433˚ 127 nm 127 nm 152° / 152° -

Altitude Profile

Advertisement - Login to hide

VDSR

Details ICAO VDSR (REP)
Name Siem Reap
Region Cambodia
Timezone Asia/Phnom_Penh (UTC+7.0)
Stats Elevation 60 ft / 18 m (AMSL)
Location 13.410667° 103.812832°
Runways 1
Magnetic Variation 0.618° W

METAR

VDSR 111530Z 00000KT 9000 NSC 26/22 Q1012

Decode

TAF

Not found

Departure Runways

ID Width Length Bearing (true) Bearing (mag) Surface Threshold Offset Overrun Length
05 148 ft / 45 m 8,384 ft / 2,555 m 47.81° 48.43° Concrete 450 ft / 137 m 0 ft / 0 m
23 148 ft / 45 m 8,384 ft / 2,555 m 227.82° 228.44° Concrete 450 ft / 137 m 0 ft / 0 m

VDPP

Details ICAO VDPP (PNH)
Name Phnom Penh Intl
Region Cambodia
Timezone Asia/Phnom_Penh (UTC+7.0)
Stats Elevation 40 ft / 12 m (AMSL)
Location 11.546542° 104.844142°
Runways 1
Magnetic Variation 0.493° W

METAR

VDPP 111530Z VRB02KT 9000 SCT017 28/21 Q1012

Decode

TAF

TAF VDPP 111100Z 1112/1206 34006KT 9999 SCT017= TAF VDSR 111100Z 1112/1206 22005KT 9999 SCT017

Decode

Destination Runways

ID Width Length Bearing (true) Bearing (mag) Surface Threshold Offset Overrun Length
05 144 ft / 44 m 9,815 ft / 2,992 m 45.61° 46.10° Asphalt 400 ft / 122 m 0 ft / 0 m
23 144 ft / 44 m 9,815 ft / 2,992 m 225.61° 226.10° Asphalt 492 ft / 150 m 0 ft / 0 m

Approach Navaids

Runway Type Ident Frequency Range Bearing (true) Bearing (mag) Slope Elevation
23 Localiser IPNP 109.70 MHz 18 nm / 33 km 225.62° 226.11° - 40 ft / 12 m (AMSL)
23 Glidescope IPNP 109.70 MHz 10 nm / 19 km 225.61° 226.10° 3.00° 37 ft / 11 m (AMSL)

Popular Alternatives